createdAt,value
2018-08-03T12:34:10.624Z,68.8
2018-08-03T12:34:59.856Z,68.9
2018-08-03T12:35:50.732Z,69.1
2018-08-03T12:36:41.101Z,69.1
2018-08-03T12:37:31.155Z,69
2018-08-03T12:38:21.170Z,68.9
2018-08-03T12:39:11.292Z,68.8
2018-08-03T12:40:01.425Z,68.9
2018-08-03T12:40:51.412Z,68.9
2018-08-03T12:41:41.190Z,68.9
2018-08-03T12:42:31.531Z,69
2018-08-03T12:43:21.748Z,69.1
2018-08-03T12:44:11.700Z,69.1
2018-08-03T12:45:01.733Z,69.1
2018-08-03T12:45:51.700Z,69.1
2018-08-03T12:46:41.887Z,69.2
2018-08-03T12:47:31.413Z,69
2018-08-03T12:48:21.717Z,68.3
2018-08-03T12:49:12.095Z,67.6
2018-08-03T12:50:02.122Z,67.5
2018-08-03T12:50:51.939Z,67.9
2018-08-03T12:51:43.039Z,68.3
2018-08-03T12:52:32.410Z,68.7
2018-08-03T12:53:22.128Z,68.8
2018-08-03T12:54:12.465Z,68.6
2018-08-03T12:55:02.532Z,68.4
2018-08-03T12:55:52.621Z,68.2
2018-08-03T12:56:42.378Z,68.1
2018-08-03T12:57:32.732Z,67.9
2018-08-03T12:58:22.512Z,67.6
2018-08-03T12:59:12.650Z,67.4
2018-08-03T13:00:02.665Z,67.6
2018-08-03T13:00:52.976Z,67.7
2018-08-03T13:01:43.034Z,67.9
2018-08-03T13:02:33.476Z,67.9
2018-08-03T13:03:23.183Z,67.9
2018-08-03T13:04:30.826Z,67.8
2018-08-03T13:05:20.551Z,67.6
2018-08-03T13:06:10.628Z,67.5
2018-08-03T13:07:00.686Z,67.4
2018-08-03T13:07:53.247Z,67.4
2018-08-03T13:08:40.522Z,67.3
2018-08-03T13:09:31.226Z,67.3
2018-08-03T13:10:20.673Z,67.2
2018-08-03T13:11:11.276Z,67
2018-08-03T13:12:01.067Z,66.9
2018-08-03T13:12:51.118Z,66.9
2018-08-03T13:13:41.211Z,66.8
2018-08-03T13:14:31.346Z,66.7
2018-08-03T13:15:21.671Z,66.3
2018-08-03T13:16:11.723Z,65.3
2018-08-03T13:17:01.756Z,64.3
2018-08-03T13:17:51.818Z,63.4
2018-08-03T13:18:41.618Z,62.4
2018-08-03T13:19:31.895Z,61.6
2018-08-03T13:20:21.906Z,60.7
2018-08-03T13:21:12.425Z,60
2018-08-03T13:22:02.126Z,59.3
2018-08-03T13:22:51.692Z,58.5
2018-08-03T13:24:32.060Z,57.1
2018-08-03T13:25:21.827Z,56.4
2018-08-03T13:26:12.018Z,55.8
2018-08-03T13:27:02.249Z,55.1
2018-08-03T13:27:52.304Z,54.5
2018-08-03T13:28:42.680Z,53.9
2018-08-03T13:29:33.175Z,54.5
2018-08-03T13:30:22.804Z,58.4
2018-08-03T13:31:12.864Z,65.6
2018-08-03T13:32:02.648Z,69.3
2018-08-03T13:32:53.015Z,68.8
2018-08-03T13:33:42.785Z,66.9
2018-08-03T13:34:33.108Z,65.6
2018-08-03T13:35:23.183Z,64.9
2018-08-03T13:36:13.609Z,64.4
2018-08-03T13:37:03.291Z,63.8
2018-08-03T13:37:53.348Z,63.3
2018-08-03T13:38:43.179Z,62.5
2018-08-03T13:39:33.479Z,61.6
2018-08-03T13:40:23.557Z,60.8
2018-08-03T13:41:13.359Z,59.9
2018-08-03T13:42:03.681Z,59.1
2018-08-03T13:42:53.401Z,58.3
2018-08-03T13:43:43.845Z,57.4
2018-08-03T13:44:34.328Z,56.7
2018-08-03T13:45:23.164Z,55.9
2018-08-03T13:46:14.027Z,55.3
2018-08-03T13:47:04.083Z,54.7
2018-08-03T13:47:53.878Z,54.1
2018-08-03T13:48:44.229Z,53.5
2018-08-03T13:49:34.043Z,52.9
2018-08-03T13:50:24.996Z,52.3
2018-08-03T13:51:14.403Z,51.7
2018-08-03T13:52:04.488Z,51.2
2018-08-03T13:52:54.552Z,50.7
2018-08-03T13:53:44.541Z,50.2
2018-08-03T13:54:34.711Z,49.7
2018-08-03T13:55:24.755Z,49.2
2018-08-03T13:56:14.278Z,48.8
2018-08-03T13:57:04.592Z,48.3
2018-08-03T13:57:54.590Z,47.9
2018-08-03T13:58:44.462Z,47.4
2018-08-03T13:59:34.813Z,47.1
2018-08-03T14:00:24.603Z,46.7
2018-08-03T14:01:14.925Z,46.3
2018-08-03T14:02:04.992Z,45.9
2018-08-03T14:02:55.326Z,45.5
2018-08-03T14:03:44.852Z,45.1
2018-08-03T14:04:34.925Z,44.8
2018-08-03T14:05:25.256Z,44.4
2018-08-03T14:06:15.313Z,44.1
2018-08-03T14:07:05.199Z,43.8
2018-08-03T14:07:55.739Z,43.4
2018-08-03T14:08:45.801Z,43.1
2018-08-03T14:09:35.862Z,42.8
2018-08-03T14:10:25.919Z,42.6
2018-08-03T14:11:15.722Z,42.3
2018-08-03T14:12:06.261Z,42
2018-08-03T14:12:56.107Z,41.8
2018-08-03T14:13:46.162Z,41.4
2018-08-03T14:14:35.695Z,41.2
2018-08-03T14:15:25.798Z,41
2018-08-03T14:16:16.111Z,40.8
2018-08-03T14:17:06.451Z,40.4
2018-08-03T14:17:56.553Z,40.2
2018-08-03T14:18:46.636Z,40
2018-08-03T14:19:36.405Z,39.8
2018-08-03T14:20:26.446Z,39.6
2018-08-03T14:21:16.801Z,39.4
2018-08-03T14:22:06.924Z,39.1
2018-08-03T14:22:56.623Z,38.9
2018-08-03T14:23:46.677Z,38.8
2018-08-03T14:24:36.785Z,38.6
2018-08-03T14:25:27.490Z,38.4
2018-08-03T14:26:17.208Z,38.2
2018-08-03T14:27:07.078Z,38
2018-08-03T14:27:57.332Z,37.8
2018-08-03T14:28:47.347Z,37.7
2018-08-03T14:29:37.157Z,37.5
2018-08-03T14:30:27.543Z,37.4
2018-08-03T14:31:17.847Z,37.2
2018-08-03T14:32:07.656Z,37.1
2018-08-03T14:32:56.862Z,36.9
2018-08-03T14:33:47.782Z,36.7
2018-08-03T14:34:37.274Z,36.5
2018-08-03T14:35:27.072Z,36.3
2018-08-03T14:36:17.715Z,36.1
2018-08-03T14:37:08.031Z,36
2018-08-03T14:37:58.197Z,35.9
2018-08-03T14:38:47.661Z,35.7
2018-08-03T14:39:37.742Z,35.6
2018-08-03T14:40:28.279Z,35.4
2018-08-03T14:41:18.354Z,35.3
2018-08-03T14:42:08.409Z,35.2
2018-08-03T14:42:57.900Z,35.1
2018-08-03T14:43:48.523Z,34.9
2018-08-03T14:44:38.043Z,34.8
2018-08-03T14:45:28.425Z,34.7
2018-08-03T14:46:18.764Z,34.6
2018-08-03T14:47:08.247Z,34.6
2018-08-03T14:47:58.015Z,34.4
2018-08-03T14:48:48.926Z,34.3
2018-08-03T14:49:38.705Z,34.2
2018-08-03T14:50:29.039Z,34.1
2018-08-03T14:51:18.829Z,34
2018-08-03T14:52:08.940Z,33.9
2018-08-03T14:52:58.982Z,33.8
2018-08-03T14:53:49.331Z,33.8
2018-08-03T14:54:39.101Z,33.7
2018-08-03T14:55:29.445Z,33.6
2018-08-03T14:56:19.518Z,33.5
2018-08-03T14:57:09.309Z,33.4
2018-08-03T14:57:59.612Z,33.3
2018-08-03T14:58:49.167Z,33.3
2018-08-03T14:59:39.019Z,33.2
2018-08-03T15:00:29.854Z,33.1
2018-08-03T15:01:19.440Z,33
2018-08-03T15:02:09.962Z,32.9
2018-08-03T15:02:59.563Z,32.9
2018-08-03T15:03:49.873Z,32.8
2018-08-03T15:04:39.612Z,32.7
2018-08-03T15:05:29.967Z,32.6
2018-08-03T15:06:20.308Z,32.6
2018-08-03T15:07:10.085Z,32.4
2018-08-03T15:08:00.285Z,32.4
2018-08-03T15:08:50.657Z,32.4
2018-08-03T15:09:40.025Z,32.3
2018-08-03T15:10:30.150Z,32.3
2018-08-03T15:11:20.739Z,32.1
2018-08-03T15:12:10.484Z,32.1
2018-08-03T15:13:00.850Z,32.1
2018-08-03T15:13:50.641Z,32
2018-08-03T15:14:40.994Z,31.9
2018-08-03T15:15:31.039Z,31.9
2018-08-03T15:16:21.081Z,31.8
2018-08-03T15:17:11.201Z,31.8
2018-08-03T15:18:01.239Z,31.7
2018-08-03T15:18:51.262Z,31.7
2018-08-03T15:19:41.805Z,31.6
2018-08-03T15:20:31.388Z,31.6
2018-08-03T15:21:21.523Z,31.5
2018-08-03T15:22:11.274Z,31.4
2018-08-03T15:23:01.607Z,31.4
2018-08-03T15:23:51.404Z,31.4
2018-08-03T15:24:41.725Z,31.3
2018-08-03T15:25:31.786Z,31.3
2018-08-03T15:26:21.588Z,31.2
2018-08-03T15:27:11.380Z,31.2
2018-08-03T15:28:01.721Z,31.1
2018-08-03T15:28:51.680Z,31.1
2018-08-03T15:29:42.111Z,31.1
2018-08-03T15:30:32.197Z,31
2018-08-03T15:31:22.252Z,30.9
2018-08-03T15:32:12.044Z,30.9
2018-08-03T15:33:02.129Z,30.8
2018-08-03T15:33:52.186Z,30.8
2018-08-03T15:34:42.505Z,30.8
2018-08-03T15:35:32.571Z,30.8
2018-08-03T15:36:22.656Z,30.7
2018-08-03T15:37:12.455Z,30.6
2018-08-03T15:38:02.781Z,30.6
2018-08-03T15:38:52.857Z,30.6
2018-08-03T15:39:42.642Z,30.5
2018-08-03T15:40:32.744Z,30.5
2018-08-03T15:41:23.044Z,30.4
2018-08-03T15:42:13.106Z,30.4
2018-08-03T15:43:02.906Z,30.4
2018-08-03T15:43:52.123Z,30.4
2018-08-03T15:44:43.456Z,30.3
2018-08-03T15:45:33.181Z,30.3
2018-08-03T15:46:23.421Z,30.2
2018-08-03T15:47:13.696Z,30.2
2018-08-03T15:48:03.591Z,30.2
2018-08-03T15:48:53.345Z,30.1
2018-08-03T15:49:43.490Z,30.1
2018-08-03T15:50:33.286Z,30.1
2018-08-03T15:51:23.840Z,30.1
2018-08-03T15:52:13.889Z,30.1
2018-08-03T15:53:03.947Z,30
2018-08-03T15:53:54.015Z,29.9
2018-08-03T15:54:43.515Z,29.9
2018-08-03T15:55:33.573Z,29.9
2018-08-03T15:56:24.240Z,29.9
2018-08-03T15:57:14.284Z,29.9
2018-08-03T15:58:04.054Z,29.8
2018-08-03T15:58:54.404Z,29.8
2018-08-03T15:59:44.465Z,29.8
2018-08-03T19:20:01.451Z,27.9
2018-08-03T19:20:51.499Z,27.9
2018-08-03T19:21:41.846Z,27.9
2018-08-03T19:22:30.601Z,27.9
2018-08-03T19:23:21.649Z,27.9
2018-08-03T19:26:41.563Z,27.9
2018-08-03T19:27:31.560Z,27.9
2018-08-03T19:40:52.863Z,27.8
2018-08-03T19:44:13.135Z,27.8
2018-08-03T19:45:02.466Z,27.8
2018-08-03T19:45:53.235Z,27.8
2018-08-03T19:46:42.975Z,27.8
2018-08-03T19:47:33.098Z,27.8
2018-08-03T19:48:23.550Z,27.8
2018-08-03T19:49:28.181Z,27.8
2018-08-03T19:50:17.930Z,27.8
2018-08-03T19:50:53.301Z,27.7
2018-08-03T19:51:43.373Z,27.8
2018-08-03T19:52:48.335Z,27.8
2018-08-03T19:53:23.533Z,27.8
2018-08-03T19:54:13.911Z,27.7
2018-08-03T19:55:03.405Z,27.8
2018-08-03T19:55:53.718Z,27.7
2018-08-03T19:56:44.055Z,27.7
2018-08-03T19:57:33.592Z,27.7
2018-08-03T19:58:24.080Z,27.7
2018-08-03T19:59:14.005Z,27.7
2018-08-03T20:00:04.549Z,27.7
2018-08-03T20:00:54.410Z,27.7
2018-08-03T20:01:43.691Z,27.7
2018-08-03T20:03:23.834Z,27.7
2018-08-03T20:04:13.914Z,27.7
2018-08-03T20:05:04.651Z,27.7
2018-08-03T20:05:54.517Z,27.6
2018-08-03T20:06:44.545Z,27.7
2018-08-03T20:07:33.889Z,27.6
2018-08-03T20:08:24.734Z,27.6
2018-08-03T20:09:15.054Z,27.6
2018-08-03T20:10:05.127Z,27.6
2018-08-03T20:10:54.411Z,27.6
2018-08-03T20:11:44.482Z,27.6
2018-08-03T20:12:34.870Z,27.6
2018-08-03T20:13:24.619Z,27.6
2018-08-03T20:14:14.675Z,27.6
2018-08-03T20:15:05.013Z,27.6
2018-08-03T20:15:55.588Z,27.6
2018-08-03T20:16:45.154Z,27.6
2018-08-03T20:17:35.129Z,27.6
2018-08-03T20:18:25.487Z,27.6
2018-08-03T20:19:15.844Z,27.6
2018-08-03T20:20:05.892Z,27.6
2018-08-03T20:21:10.612Z,27.6
2018-08-03T20:21:45.777Z,27.6
2018-08-03T20:22:36.055Z,27.6
2018-08-03T20:23:26.152Z,27.6
2018-08-03T20:24:15.922Z,27.6
2018-08-03T20:25:06.270Z,27.6
2018-08-03T20:25:56.556Z,27.6
2018-08-03T20:26:46.402Z,27.6
2018-08-03T20:27:36.469Z,27.6
2018-08-03T20:28:40.617Z,27.6
2018-08-03T20:29:16.297Z,27.6
2018-08-03T20:30:06.639Z,27.6
2018-08-03T20:31:11.107Z,27.6
2018-08-03T20:31:46.232Z,27.6
2018-08-03T20:32:36.471Z,27.6
2018-08-03T20:33:27.130Z,27.5
2018-08-03T20:34:16.915Z,27.5
2018-08-03T20:35:06.712Z,27.6
2018-08-03T20:35:57.065Z,27.5
2018-08-03T20:36:46.912Z,27.6
2018-08-03T20:37:36.949Z,27.6
2018-08-03T20:38:27.258Z,27.5
2018-08-03T20:39:17.708Z,27.5
2018-08-03T20:40:06.907Z,27.5
2018-08-03T20:40:57.736Z,27.5
2018-08-03T20:41:47.549Z,27.5
2018-08-03T20:42:37.629Z,27.5
2018-08-03T20:43:27.140Z,27.5
2018-08-03T20:44:17.481Z,27.5
2018-08-03T20:45:07.595Z,27.5
2018-08-03T20:45:57.918Z,27.5
2018-08-03T20:46:47.662Z,27.5
2018-08-03T20:47:38.045Z,27.5
2018-08-03T20:48:28.091Z,27.5
2018-08-03T20:49:17.667Z,27.5
2018-08-03T20:50:07.933Z,27.5
2018-08-03T20:50:58.287Z,27.5
2018-08-03T20:51:47.799Z,27.5
2018-08-03T20:52:38.128Z,27.5
2018-08-03T20:53:27.920Z,27.5
2018-08-03T20:54:18.513Z,27.4
2018-08-03T20:55:08.311Z,27.4
2018-08-03T20:55:58.672Z,27.4
2018-08-03T20:56:48.664Z,27.4
2018-08-03T20:57:38.773Z,27.4
2018-08-03T20:58:29.899Z,27.4
2018-08-03T20:59:18.894Z,27.4
2018-08-03T21:00:23.738Z,27.4
2018-08-03T21:00:59.096Z,27.4
2018-08-03T21:01:48.822Z,27.4
2018-08-03T21:02:39.737Z,27.4
2018-08-03T21:03:28.935Z,27.4
2018-08-03T21:04:19.279Z,27.4
2018-08-03T21:05:09.351Z,27.4
2018-08-03T21:05:59.438Z,27.4
2018-08-03T21:06:49.482Z,27.4
2018-08-03T21:07:39.293Z,27.4
2018-08-03T21:08:29.095Z,27.4
2018-08-03T21:09:19.668Z,27.4
2018-08-03T21:10:09.730Z,27.4
2018-08-03T21:10:59.798Z,27.4
2018-08-03T21:11:49.910Z,27.4
2018-08-03T21:12:40.499Z,27.4
2018-08-03T21:13:30.315Z,27.4
2018-08-03T21:14:20.293Z,27.4
2018-08-03T21:15:09.650Z,27.4
2018-08-03T21:15:59.955Z,27.4
2018-08-03T21:16:50.347Z,27.4
2018-08-03T21:17:40.729Z,27.4
2018-08-03T21:18:30.466Z,27.4
2018-08-03T21:19:19.980Z,27.4
2018-08-03T21:20:10.156Z,27.4
2018-08-03T21:21:00.291Z,27.4
2018-08-03T21:21:50.691Z,27.4
2018-08-03T21:22:40.658Z,27.4
2018-08-03T21:23:31.071Z,27.4
2018-08-03T21:24:20.857Z,27.4
2018-08-03T21:25:10.383Z,27.3
2018-08-03T21:26:00.980Z,27.4
2018-08-03T21:26:51.092Z,27.4
2018-08-03T21:27:41.117Z,27.4
2018-08-03T21:28:31.228Z,27.3
2018-08-03T21:29:20.950Z,27.3
2018-08-03T21:30:11.795Z,27.4
2018-08-03T21:31:01.393Z,27.4
2018-08-03T21:32:06.129Z,27.3
2018-08-03T21:32:41.528Z,27.3
2018-08-03T21:33:31.564Z,27.3
2018-08-03T21:34:20.875Z,27.3
2018-08-03T21:35:11.228Z,27.3
2018-08-03T21:36:01.080Z,27.3
2018-08-03T21:37:05.905Z,27.3
2018-08-03T21:37:41.846Z,27.3
2018-08-03T21:38:31.668Z,27.3
2018-08-03T21:39:36.371Z,27.3
2018-08-03T21:40:12.068Z,27.3
2018-08-03T21:41:02.136Z,27.3
2018-08-03T21:41:52.206Z,27.3
2018-08-03T21:42:42.339Z,27.3
2018-08-03T21:43:32.539Z,27.3
2018-08-03T21:44:22.225Z,27.3
2018-08-03T21:45:12.462Z,27.3
2018-08-03T21:46:02.575Z,27.3
2018-08-03T21:46:52.045Z,27.3
2018-08-03T21:47:42.692Z,27.3
2018-08-03T21:48:32.474Z,27.3
2018-08-03T21:49:23.176Z,27.3
2018-08-03T21:50:12.554Z,27.3
2018-08-03T21:51:02.639Z,27.3
2018-08-03T21:52:06.731Z,27.3
2018-08-03T21:52:42.731Z,27.3
2018-08-03T21:53:32.640Z,27.3
2018-08-03T21:54:22.923Z,27.3
2018-08-03T21:55:12.718Z,27.3
2018-08-03T21:56:03.374Z,27.3
2018-08-03T21:56:52.915Z,27.3
2018-08-03T21:57:42.910Z,27.3
2018-08-03T21:59:22.827Z,27.3
2018-08-03T22:00:13.070Z,27.3
2018-08-03T22:01:03.732Z,27.3
2018-08-03T22:01:53.545Z,27.3
2018-08-03T22:02:43.092Z,27.3
2018-08-03T22:03:33.194Z,27.3
2018-08-03T22:04:22.930Z,27.3
2018-08-03T22:05:13.558Z,27.3
2018-08-03T22:06:18.827Z,27.3
2018-08-03T22:06:53.915Z,27.3
2018-08-03T22:07:44.455Z,27.3
2018-08-03T22:08:33.918Z,27.3
2018-08-03T22:09:23.915Z,27.3
2018-08-03T22:10:13.996Z,27.3
2018-08-03T22:11:03.769Z,27.3
2018-08-03T22:11:54.187Z,27.3
2018-08-03T22:12:43.858Z,27.3
2018-08-03T22:13:33.952Z,27.3
2018-08-03T22:14:24.779Z,27.3
2018-08-03T22:15:14.829Z,27.3
2018-08-03T22:16:04.397Z,27.3
2018-08-03T22:16:54.713Z,27.3
2018-08-03T22:17:44.771Z,27.3
2018-08-03T22:18:34.826Z,27.3
2018-08-03T22:19:24.686Z,27.3
2018-08-03T22:20:14.925Z,27.3
2018-08-03T22:21:04.998Z,27.3
2018-08-03T22:21:55.108Z,27.3
2018-08-03T22:22:45.368Z,27.3
2018-08-03T22:23:35.161Z,27.3
2018-08-03T22:24:25.935Z,27.3
2018-08-03T22:25:15.893Z,27.3
2018-08-03T22:26:05.432Z,27.3
2018-08-03T22:26:55.752Z,27.3
2018-08-03T22:27:45.879Z,27.3
2018-08-03T22:28:35.449Z,27.3
2018-08-03T22:29:25.916Z,27.3
2018-08-03T22:30:16.009Z,27.3
2018-08-03T22:31:06.061Z,27.3
2018-08-03T22:31:56.075Z,27.3
2018-08-03T22:32:46.335Z,27.3
2018-08-03T22:33:35.696Z,27.2
2018-08-03T22:34:26.064Z,27.2
2018-08-03T22:35:16.399Z,27.3
2018-08-03T22:36:05.900Z,27.3
2018-08-03T22:36:56.507Z,27.2
2018-08-03T22:37:46.557Z,27.3
2018-08-03T22:38:37.425Z,27.2
2018-08-03T22:39:26.738Z,27.2
2018-08-03T22:40:16.750Z,27.2
2018-08-03T22:41:06.819Z,27.2
2018-08-03T22:41:56.599Z,27.2
2018-08-03T22:42:46.656Z,27.2
2018-08-03T22:43:36.459Z,27.2
2018-08-03T22:44:26.866Z,27.2
2018-08-03T22:45:16.541Z,27.2
2018-08-03T22:46:07.490Z,27.2
2018-08-03T22:47:11.858Z,27.2
2018-08-03T22:47:47.311Z,27.2
2018-08-03T22:48:37.399Z,27.2
2018-08-03T22:49:27.466Z,27.2
2018-08-03T22:50:17.224Z,27.2
2018-08-03T22:51:07.581Z,27.2
2018-08-03T22:51:57.063Z,27.2
2018-08-03T22:52:47.428Z,27.2
2018-08-03T22:53:37.532Z,27.2
2018-08-03T22:54:27.856Z,27.2
2018-08-03T22:55:17.616Z,27.2
2018-08-03T22:56:07.955Z,27.2
2018-08-03T22:56:58.243Z,27.1
2018-08-03T22:57:47.844Z,27.2
2018-08-03T22:58:37.886Z,27.2
2018-08-03T22:59:27.966Z,27.2
2018-08-03T23:00:18.301Z,27.2
2018-08-03T23:01:09.053Z,27.2
2018-08-03T23:01:58.168Z,27.2
2018-08-03T23:02:48.222Z,27.2
2018-08-03T23:03:38.268Z,27.2
2018-08-03T23:04:28.327Z,27.2
2018-08-03T23:05:18.408Z,27.2
2018-08-03T23:06:08.759Z,27.2
2018-08-03T23:06:58.808Z,27.2
2018-08-03T23:07:48.604Z,27.2
2018-08-03T23:08:38.650Z,27.2
2018-08-03T23:09:29.109Z,27.2
2018-08-03T23:10:18.610Z,27.2
2018-08-03T23:11:08.677Z,27.2
2018-08-03T23:11:58.452Z,27.2
2018-08-03T23:12:48.805Z,27.2
2018-08-03T23:13:38.574Z,27.2
2018-08-03T23:14:28.644Z,27.2
2018-08-03T23:15:18.990Z,27.2
2018-08-03T23:16:09.065Z,27.2
2018-08-03T23:16:59.612Z,27.2
2018-08-03T23:17:49.685Z,27.2
2018-08-03T23:18:39.254Z,27.2
2018-08-03T23:19:29.822Z,27.2
2018-08-03T23:20:19.046Z,27.2
2018-08-03T23:21:09.457Z,27.2
2018-08-03T23:21:59.495Z,27.2
2018-08-03T23:22:49.513Z,27.2
2018-08-03T23:23:40.157Z,27.2
2018-08-03T23:24:29.877Z,27.2
2018-08-03T23:25:19.992Z,27.2
2018-08-03T23:26:10.339Z,27.2
2018-08-03T23:27:00.087Z,27.2
2018-08-03T23:27:50.135Z,27.2
2018-08-03T23:28:40.239Z,27.2
2018-08-03T23:29:29.989Z,27.2
2018-08-03T23:30:20.610Z,27.2
2018-08-03T23:31:10.150Z,27.2
2018-08-03T23:32:00.499Z,27.2
2018-08-03T23:32:50.841Z,27.1
2018-08-03T23:33:40.603Z,27.2
2018-08-03T23:34:30.678Z,27.2
2018-08-03T23:35:21.016Z,27.1
2018-08-03T23:36:11.070Z,27.2
2018-08-03T23:37:01.168Z,27.1
2018-08-03T23:37:50.662Z,27.1
2018-08-03T23:38:41.282Z,27.1
2018-08-03T23:39:31.095Z,27.1
2018-08-03T23:40:21.408Z,27.2
2018-08-03T23:41:11.480Z,27.1
2018-08-03T23:42:01.260Z,27.1
2018-08-03T23:42:51.615Z,27.2
2018-08-03T23:43:41.384Z,27.1
2018-08-03T23:44:31.726Z,27.1
2018-08-03T23:45:21.798Z,27.1
2018-08-03T23:46:11.106Z,27.1
2018-08-03T23:47:01.441Z,27.1
2018-08-03T23:47:51.494Z,27.1
2018-08-03T23:48:41.571Z,27.1
2018-08-03T23:49:31.142Z,27.1
2018-08-03T23:50:21.702Z,27.1
2018-08-03T23:51:11.277Z,27.1
2018-08-03T23:52:01.546Z,27.1
2018-08-03T23:52:51.613Z,27.1
2018-08-03T23:53:42.168Z,27.1
2018-08-03T23:54:32.509Z,27.1
2018-08-03T23:55:22.003Z,27.1
2018-08-03T23:56:12.393Z,27.1
2018-08-03T23:57:02.418Z,27.1
2018-08-03T23:57:52.961Z,27.2
2018-08-03T23:58:42.600Z,27.1
2018-08-03T23:59:32.950Z,27.1
